Northwest Sanderling — VNVZ — position and weather

sailwx.info

Track history (hours):
 
Tides and Currents Weather Stations Pressure Air Temp Water Temp Dewpoint Dewpoint Depression Visibility Wind Speed Wind Dir Waves Ship Positions

Northwest Sanderling

Last reported at 2015-Jul-02 17:31 UTC. Time now 2015-Jul-03 20:22 UTC.
Position S 19°24' E 117°19'.

Length 272 m; beam 47.2 m; draft 11.4 m.

Type: Ship (hazmat cat A). MMSI: 503000050.

Date/timePositionNaut miles runAvg speedWind from/ knotsBaromVisibWave heightAir tempDewpointWater temp
2015-Jul-02 17:31S 19°24' E 117°19'1414.8
2015-Jul-02 16:33S 19°36' E 117°12'1514.9
2015-Jul-02 15:33S 19°49' E 117°04'1614.7
2015-Jul-02 14:29S 20°03' E 116°55'1314.5
2015-Jul-02 13:33S 20°14' E 116°48'1312.0
2015-Jul-02 12:30S 20°26' E 116°44'8 8.9
2015-Jul-02 11:33S 20°34' E 116°45'1 0.1
2015-Jul-01 16:16S 20°35' E 116°46'0 0.0
2015-Jul-01 14:28S 20°35' E 116°46'0 0.0
2015-Jul-01 09:05S 20°35' E 116°46'0 0.6
2015-Jul-01 08:33S 20°35' E 116°46'7 7.3
2015-Jul-01 07:33S 20°28' E 116°44'1110.6
2015-Jul-01 06:32S 20°17' E 116°46'11 9.4
2015-Jul-01 05:20S 20°08' E 116°53'5 6.6
2015-Jul-01 04:32S 20°03' E 116°55'9 7.4
2015-Jul-01 03:20S 19°57' E 117°02'5 7.0
2015-Jul-01 02:33S 19°51' E 117°03'8 8.0
2015-Jul-01 01:33S 19°47' E 117°10'8 7.7
2015-Jul-01 00:32S 19°39' E 117°10'7 3.3
2015-Jun-30 22:32S 19°45' E 117°07'1010.3
2015-Jun-30 21:33S 19°54' E 117°02'8 8.3
2015-Jun-30 20:33S 20°01' E 116°57'1010.0
2015-Jun-30 19:33S 19°52' E 117°02'11 9.9
2015-Jun-30 18:28S 19°43' E 117°08'9 9.8
2015-Jun-30 17:33S 19°35' E 117°12'11 1.1
2015-Jun-30 07:32S 19°26' E 117°18'22 3.0
2015-Jun-30 00:00S 19°48' E 117°18'   180 / 181020.010.8 2.024.522.326.8
Track history (hours):
 
Tides and Currents Weather Stations Pressure Air Temp Water Temp Dewpoint Dewpoint Depression Visibility Wind Speed Wind Dir Waves Ship Positions

Northwest Sanderling

Last reported at 2015-Jul-02 17:31 UTC. Time now 2015-Jul-03 20:22 UTC.
Position S 19°24' E 117°19'.

Length 272 m; beam 47.2 m; draft 11.4 m.

Type: Ship (hazmat cat A). MMSI: 503000050.

Date/timePositionNaut miles runAvg speedWind from/ knotsBaromVisibWave heightAir tempDewpointWater temp
2015-Jul-02 17:31S 19°24' E 117°19'1414.8
2015-Jul-02 16:33S 19°36' E 117°12'1514.9
2015-Jul-02 15:33S 19°49' E 117°04'1614.7
2015-Jul-02 14:29S 20°03' E 116°55'1314.5
2015-Jul-02 13:33S 20°14' E 116°48'1312.0
2015-Jul-02 12:30S 20°26' E 116°44'8 8.9
2015-Jul-02 11:33S 20°34' E 116°45'1 0.1
2015-Jul-01 16:16S 20°35' E 116°46'0 0.0
2015-Jul-01 14:28S 20°35' E 116°46'0 0.0
2015-Jul-01 09:05S 20°35' E 116°46'0 0.6
2015-Jul-01 08:33S 20°35' E 116°46'7 7.3
2015-Jul-01 07:33S 20°28' E 116°44'1110.6
2015-Jul-01 06:32S 20°17' E 116°46'11 9.4
2015-Jul-01 05:20S 20°08' E 116°53'5 6.6
2015-Jul-01 04:32S 20°03' E 116°55'9 7.4
2015-Jul-01 03:20S 19°57' E 117°02'5 7.0
2015-Jul-01 02:33S 19°51' E 117°03'8 8.0
2015-Jul-01 01:33S 19°47' E 117°10'8 7.7
2015-Jul-01 00:32S 19°39' E 117°10'7 3.3
2015-Jun-30 22:32S 19°45' E 117°07'1010.3
2015-Jun-30 21:33S 19°54' E 117°02'8 8.3
2015-Jun-30 20:33S 20°01' E 116°57'1010.0
2015-Jun-30 19:33S 19°52' E 117°02'11 9.9
2015-Jun-30 18:28S 19°43' E 117°08'9 9.8
2015-Jun-30 17:33S 19°35' E 117°12'11 1.1
2015-Jun-30 07:32S 19°26' E 117°18'22 3.0
2015-Jun-30 00:00S 19°48' E 117°18'   180 / 181020.010.8 2.024.522.326.8

Dump ship's entire track history